Aérodrome :
LOGIN :

S'inscrire | Disclaimer

   EN    FR    IT 

 










Légende :    VFR   VFR Marginal   IFR   IFR Intensif   IFR Très Intensif
Visi : 
Plafond : 
>= 8 km
>= 3000ft
5 à 8 km
1000 à 3000 ft
1500m à 5 km
500 à 1000 ft
800 à 1500m
200 à 500 ft
< 800m
< 200 ft
Symboles :   Orages  Brouillard  Fortes neiges  Fortes précipitations  Vent > 20 kt
SIGMETs :   Divers  Orages  Givrage  Turbulence  Onde Orograph.  Cendres Volcan.







- Altitude de l'aérodrome : 13 ft
- Code IATA : CEQ
- Voir les cartes d'approche


LFMD - Cannes Mandelieu

DERNIER METAR :
  • 271230Z AUTO 17004KT 9999 FEW029 BKN037 BKN096 19/14 Q1008 TEMPO 24012KT SHRA SCT030TCU BKN066

METARs EXPIRÉS :
  • 271200Z AUTO 15006KT 110V180 CAVOK 20/14 Q1008 TEMPO 24012KT SHRA SCT030TCU BKN066
  • 271130Z AUTO 15007KT 110V180 9999 BKN034 BKN042 BKN052 20/16 Q1008 TEMPO 24012KT SHRA SCT030TCU BKN066
  • 271100Z AUTO 18006KT 150V210 9999 FEW037 SCT047 BKN070 21/13 Q1008 TEMPO SHRA SCT030TCU BKN066
  • 271030Z AUTO 20005KT 170V230 9999 FEW044 SCT068 OVC086 22/13 Q1008 TEMPO SHRA SCT030TCU BKN066
  • 271000Z AUTO VRB01KT 9999 FEW046 SCT062 BKN074 22/13 Q1007 TEMPO 24012KT SHRA SCT030TCU BKN066

TAF TAF LFMD
Valide du 27 à 09h jusqu'au 28 à 09h UTC


270800Z 2709/2809 VRB03KT CAVOK
BECMG 2709/2711 16008KT
TEMPO 2709/2718 24012KT SHRA SCT030TCU BKN066
BECMG 2721/2723 VRB04KT
TEMPO 2720/2806 BKN014
BECMG 2806/2808 13005KT CAVOK
ATIS : +33 4 93 48 73 23
Pas de NOTAMs connus pour ce terrain.



MET'MAP, la Météo Aéronautique d'un coup d'oeil ! - Copyright ORBIFLY Décembre 2007 - Disclaimer

ORBIFLY MET'MAP TEAM :

Programmation & Développement : Alexandra Zaïnal
Conception & Développement : Baudouin d'Aumeries
Co-Programmation & Développement : Marc-Olivier Méhu
Soutien technique & logistique : Manuel Goepfert

Contact : metmap@orbifly.com




SOURCES & CREDITS :

   NOAA